Flight Track Log - Related Links

Times and Time Zones

All times are in EDT time to prevent confusion due to time zone crossing. See the CTL18 flight status page for this flight to view local times or setup timezone preferences in your user account.


Time Position Orientation Groundspeed Altitude Reporting Facility
EDT Latitude Longitude Course Direction KTS MPH feet Rate Location/Type
Wed 06:55:18 PM 42.6639 -83.4433 267° West 107 123 1,600  Level FAA TRACON SMA TRACON (SMA)
Wed 06:55:38 PM 42.6633 -83.4558 267° West 109 125 2,000 1,317 Climbing FAA TRACON SMA TRACON (SMA)
Wed 06:55:59 PM 42.6631 -83.4719 269° West 110 127 2,500 1,171 Climbing FAA TRACON SMA TRACON (SMA)
Wed 06:56:19 PM 42.6711 -83.4806 322° Northwest 109 125 2,800 900 Climbing FAA TRACON SMA TRACON (SMA)
Wed 06:56:39 PM 42.6814 -83.4842 346° North 133 153 3,100 450 Climbing FAA TRACON SMA TRACON (SMA)
Wed 06:56:59 PM 42.6964 -83.4872 351° North 151 174 3,100 -150 Level FAA TRACON SMA TRACON (SMA)
Wed 06:57:19 PM 42.7094 -83.4894 353° North 156 180 3,000 -154 Descending FAA TRACON SMA TRACON (SMA)
Wed 06:57:38 PM 42.7231 -83.4919 352° North 158 182 3,000  Level FAA TRACON SMA TRACON (SMA)
Wed 06:57:58 PM 42.7394 -83.4956 351° North 156 180 3,000  Level FAA TRACON SMA TRACON (SMA)
Wed 06:58:19 PM 42.7497 -83.5033 331° Northwest 156 180 3,000  Level FAA TRACON SMA TRACON (SMA)
Wed 06:58:38 PM 42.7625 -83.5125 332° Northwest 155 178 3,000  Level FAA TRACON SMA TRACON (SMA)
Wed 06:58:58 PM 42.7767 -83.5236 330° Northwest 151 174 3,000  Level FAA TRACON SMA TRACON (SMA)
Wed 06:59:18 PM 42.7881 -83.5325 330° Northwest 151 174 3,000  Level FAA TRACON SMA TRACON (SMA)
Wed 06:59:38 PM 42.7989 -83.5408 331° Northwest 150 173 3,000  Level FAA TRACON SMA TRACON (SMA)
Wed 06:59:59 PM 42.8128 -83.5511 332° Northwest 149 171 3,000  Level FAA TRACON SMA TRACON (SMA)
Wed 07:00:18 PM 42.8236 -83.5597 330° Northwest 148 170 3,000  Level FAA TRACON SMA TRACON (SMA)
Wed 07:00:38 PM 42.8353 -83.5669 336° Northwest 147 169 3,000  Level FAA TRACON SMA TRACON (SMA)
Wed 07:00:59 PM 42.8492 -83.5778 330° Northwest 148 170 3,000  Level FAA TRACON SMA TRACON (SMA)
Wed 07:01:18 PM 42.8589 -83.5856 330° Northwest 150 173 3,000  Level FAA TRACON SMA TRACON (SMA)
Wed 07:01:38 PM 42.8714 -83.5950 331° Northwest 149 171 3,000  Level FAA TRACON SMA TRACON (SMA)
Wed 07:01:59 PM 42.8856 -83.6058 331° Northwest 150 173 3,000  Level FAA TRACON SMA TRACON (SMA)
Wed 07:02:19 PM 42.8958 -83.6142 329° Northwest 150 173 3,000  Level FAA TRACON SMA TRACON (SMA)
Wed 07:02:39 PM 42.9086 -83.6228 334° Northwest 151 174 3,000 154 Level FAA TRACON SMA TRACON (SMA)
Wed 07:02:58 PM 42.9228 -83.6331 332° Northwest 151 174 3,100  Climbing FAA TRACON SMA TRACON (SMA)
Wed 07:03:18 PM 42.9325 -83.6414 328° Northwest 151 174 3,000 -146 Descending FAA TRACON SMA TRACON (SMA)
Wed 07:03:39 PM 42.9453 -83.6500 334° Northwest 150 173 3,000  Level FAA TRACON SMA TRACON (SMA)
Wed 07:03:58 PM 42.9594 -83.6600 333° Northwest 149 171 3,000  Level FAA TRACON SMA TRACON (SMA)
Wed 07:04:18 PM 42.9689 -83.6689 325° Northwest 149 171 3,000  Level FAA TRACON SMA TRACON (SMA)
Wed 07:04:39 PM 42.9819 -83.6761 338° Northwest 148 170 3,000 150 Level FAA TRACON SMA TRACON (SMA)
Wed 07:04:58 PM 42.9958 -83.6864 332° Northwest 148 170 3,100  Climbing FAA TRACON SMA TRACON (SMA)
Wed 07:05:18 PM 43.0075 -83.6939 335° Northwest 148 170 3,000 100 Descending FAA TRACON SMA TRACON (SMA)
Wed 07:05:58 PM 43.0325 -83.7128 331° Northwest 148 170 3,200  Climbing FAA TRACON SMA TRACON (SMA)
Wed 07:06:18 PM 43.0436 -83.7206 333° Northwest 148 170 3,000 -293 Descending FAA TRACON SMA TRACON (SMA)
Wed 07:06:39 PM 43.0522 -83.7281 328° Northwest 150 173 3,000  Level FAA TRACON SMA TRACON (SMA)
Wed 07:06:58 PM 43.0522 -83.7281 56° Northeast 150 173 3,000  Level FAA TRACON SMA TRACON (SMA)
Wed 07:08:00 PM 43.0992 -83.7536 338° Northwest  Level FlightAware Approximate
Wed 07:15:00 PM 43.4064 -83.9396 324° Northwest  Level FlightAware Approximate
Wed 07:16:00 PM 43.4459 -83.9792 324° Northwest  Level FlightAware Approximate
Wed 07:17:00 PM 43.4855 -84.0188 324° Northwest  Level FlightAware Approximate
Wed 07:18:00 PM 43.5167 -84.0667 305° West  Level FlightAware Approximate
Wed 07:19:00 PM 43.5329 -84.0796 305° West  Level Estimated
Wed 07:20:00 PM 43.5329 -84.0796 305° West  Level Estimated
Wed 07:21:00 PM 43.5329 -84.0796 305° West  Level Estimated
Wed 07:22:00 PM 43.5329 -84.0796 305° West  Level Estimated
Wed 07:23:00 PM 43.5329 -84.0796 305° West  Level Estimated
Wed 07:24:00 PM 43.5329 -84.0796 305° West  Level Estimated
Wed 07:25:00 PM 43.5329 -84.0796 305° West  Level Estimated
Wed 07:26:00 PM 43.5329 -84.0796 305° West  Level Estimated
Wed 07:27:00 PM 43.5329 -84.0796 305° West  Level Estimated

Login

Don't have an account? Register now (free) for customized features, flight alerts, and more!